首页
METAR-TAF:

METAR-TAF

机场 :

弗利辛恩, 荷兰

纬度: 51-27N, 经度: 3-36E, 海拔: 10米

当前天气观测

该预报发布于29分钟前的08:55 UTC
风速7节,风向西,在西转西南西北之间变化
温度 15°C
湿度 100%
气压 1015 hPa
能見度: 4200
毛毛雨

METAR: EHFS 190855Z AUTO 28007KT 250V310 4200 DZ BKN004/// OVC005/// 15/15 Q1015

时间: 11:24 (09:24 UTC)


TAF: 丢失

超过4000个机场的气象观测和天气预报(METAR&TAF报告)。

可查询的气象台以黄色和红色小点在地图上表示。

将鼠标移到小点上方,可查看气象台名称。

然后点击查看天气观测和预报。

如需切换地图:点击带黑十字的绿色按钮放大地图;点击带横线的绿色按钮缩小地图;或者点击绿色箭头查看邻近地区的地图。


METAR-TAF: